Time;durP1;ratioP1;P1;durP2;ratioP2;P2;SDS_P1;SDS_P2;PMS_P1;PMS_P2;Temp;Humidity;BMP_temperature;BMP_pressure;BME280_temperature;BME280_humidity;BME280_pressure;Samples;Min_cycle;Max_cycle;Signal;HPM_P1;HPM_P2
2021/08/17 00:00:11;;;;;;;0.70;0.60;;;13.80;99.90;;;;;;5008909;28;20501;-70
2021/08/17 00:02:37;;;;;;;0.93;0.60;;;13.80;99.90;;;;;;5019796;28;20275;-71
2021/08/17 00:05:04;;;;;;;7.27;2.00;;;13.80;99.90;;;;;;5014431;28;20542;-73
2021/08/17 00:07:30;;;;;;;1.63;0.93;;;13.80;99.90;;;;;;5030660;28;20199;-73
2021/08/17 00:09:55;;;;;;;1.30;1.20;;;13.80;99.90;;;;;;5019255;28;20422;-72
2021/08/17 00:12:21;;;;;;;1.03;1.03;;;13.80;99.90;;;;;;5015106;28;20458;-73
2021/08/17 00:14:48;;;;;;;1.63;1.53;;;13.80;99.90;;;;;;5029728;28;20191;-73
2021/08/17 00:17:13;;;;;;;1.23;1.13;;;13.80;99.90;;;;;;5027997;28;20691;-73
2021/08/17 00:19:40;;;;;;;3.33;1.60;;;13.70;99.90;;;;;;5017266;28;20431;-74
2021/08/17 00:22:10;;;;;;;0.80;0.70;;;13.70;99.90;;;;;;5016911;28;20257;-74
2021/08/17 00:24:36;;;;;;;9.20;2.80;;;13.70;99.90;;;;;;5014460;28;20484;-70
2021/08/17 00:27:02;;;;;;;1.80;1.70;;;13.70;99.90;;;;;;5029451;28;20846;-69
2021/08/17 00:29:28;;;;;;;1.77;0.80;;;13.70;99.90;;;;;;5033898;28;20446;-72
2021/08/17 00:31:53;;;;;;;1.13;1.10;;;13.70;99.90;;;;;;5015972;28;20483;-71
2021/08/17 00:34:19;;;;;;;3.10;2.93;;;13.70;99.90;;;;;;5022185;28;20257;-71
2021/08/17 00:36:45;;;;;;;0.80;0.70;;;13.70;99.90;;;;;;5010391;28;20265;-72
2021/08/17 00:39:11;;;;;;;2.83;1.53;;;13.60;99.90;;;;;;5018476;28;20203;-70
2021/08/17 00:41:38;;;;;;;1.63;1.43;;;13.60;99.90;;;;;;5014524;28;20423;-71
2021/08/17 00:44:05;;;;;;;4.40;4.10;;;13.60;99.90;;;;;;4997918;28;20835;-69
2021/08/17 00:46:31;;;;;;;3.53;1.40;;;13.60;99.90;;;;;;5019291;28;20473;-73
2021/08/17 00:48:57;;;;;;;0.90;0.90;;;13.50;99.90;;;;;;5032596;28;20899;-73
2021/08/17 00:51:22;;;;;;;2.57;2.00;;;13.50;99.90;;;;;;5021536;28;20430;-70
2021/08/17 00:53:51;;;;;;;0.93;0.90;;;13.50;99.90;;;;;;5018434;28;20210;-70
2021/08/17 00:56:17;;;;;;;2.00;1.90;;;13.60;99.90;;;;;;5031093;28;20782;-72
2021/08/17 00:58:43;;;;;;;2.43;2.17;;;13.60;99.90;;;;;;5033174;28;20509;-71
2021/08/17 01:01:08;;;;;;;1.33;1.23;;;13.60;99.90;;;;;;5026646;28;20932;-73
2021/08/17 01:03:38;;;;;;;2.57;2.47;;;13.60;99.90;;;;;;5011938;28;20183;-73
2021/08/17 01:06:03;;;;;;;1.60;1.40;;;13.70;99.90;;;;;;5021055;28;20224;-71
2021/08/17 01:08:29;;;;;;;0.70;0.57;;;13.70;99.90;;;;;;5020828;28;20462;-72
2021/08/17 01:10:55;;;;;;;2.70;2.50;;;13.70;99.90;;;;;;5020525;28;20644;-71
2021/08/17 01:13:23;;;;;;;2.33;2.13;;;13.60;99.90;;;;;;5031150;28;20549;-71
2021/08/17 01:15:49;;;;;;;2.93;2.30;;;13.60;99.90;;;;;;5016239;28;20183;-72
2021/08/17 01:18:15;;;;;;;4.53;2.63;;;13.60;99.90;;;;;;5033233;28;20422;-70
2021/08/17 01:20:42;;;;;;;2.03;1.83;;;13.70;99.90;;;;;;5016034;28;20439;-72
2021/08/17 01:23:08;;;;;;;1.00;0.80;;;13.70;99.90;;;;;;5016283;28;20261;-73
2021/08/17 01:25:38;;;;;;;2.00;1.90;;;13.70;99.90;;;;;;5013026;28;20460;-72
2021/08/17 01:28:04;;;;;;;0.70;0.70;;;13.60;99.90;;;;;;5031888;28;20652;-72
2021/08/17 01:30:29;;;;;;;8.80;3.47;;;13.60;99.90;;;;;;5019218;28;20541;-74
2021/08/17 01:32:55;;;;;;;2.50;2.30;;;13.60;99.90;;;;;;5026090;28;20298;-73
2021/08/17 01:35:20;;;;;;;1.30;1.20;;;13.60;99.90;;;;;;5012652;28;20553;-71
2021/08/17 01:37:46;;;;;;;1.03;0.80;;;13.60;99.90;;;;;;5011769;28;20668;-74
2021/08/17 01:40:12;;;;;;;5.80;4.33;;;13.60;99.90;;;;;;5021055;28;20183;-74
2021/08/17 01:42:50;;;;;;;2.50;2.10;;;13.60;99.90;;;;;;5020743;28;20230;-72
2021/08/17 01:45:18;;;;;;;2.33;2.20;;;13.60;99.90;;;;;;5012138;28;20461;-72
2021/08/17 01:47:49;;;;;;;3.07;2.77;;;13.70;99.90;;;;;;5012544;28;20828;-72
2021/08/17 01:50:15;;;;;;;0.77;0.67;;;13.70;99.90;;;;;;5023776;28;20422;-73
2021/08/17 01:52:41;;;;;;;9.77;3.40;;;13.70;99.90;;;;;;5015455;28;20439;-72
2021/08/17 01:55:07;;;;;;;2.70;2.50;;;13.70;99.90;;;;;;5020048;28;20489;-72
2021/08/17 01:57:35;;;;;;;1.50;1.40;;;13.80;99.90;;;;;;5013115;28;20242;-73
2021/08/17 02:00:01;;;;;;;1.93;1.83;;;13.70;99.90;;;;;;5013705;28;20462;-71
2021/08/17 02:02:26;;;;;;;1.83;1.73;;;13.70;99.90;;;;;;5021522;28;20458;-73
2021/08/17 02:04:52;;;;;;;1.93;1.83;;;13.70;99.90;;;;;;5023176;28;20187;-71
2021/08/17 02:07:17;;;;;;;15.83;2.50;;;13.70;99.90;;;;;;5014331;28;20195;-71
2021/08/17 02:09:43;;;;;;;1.40;1.33;;;13.70;99.90;;;;;;5007055;28;20233;-73
2021/08/17 02:12:08;;;;;;;1.10;1.10;;;13.60;99.90;;;;;;5013098;28;20668;-70
2021/08/17 02:14:34;;;;;;;0.80;0.80;;;13.70;99.90;;;;;;5012152;28;20199;-70
2021/08/17 02:17:00;;;;;;;1.20;1.10;;;13.70;99.90;;;;;;5011696;28;20199;-70
2021/08/17 02:19:25;;;;;;;1.57;1.47;;;13.60;99.90;;;;;;5016378;28;20175;-71
2021/08/17 02:21:51;;;;;;;4.50;1.93;;;13.60;99.90;;;;;;5019440;28;20176;-71
2021/08/17 02:24:16;;;;;;;2.80;2.60;;;13.60;99.90;;;;;;5011118;28;20175;-71
2021/08/17 02:26:42;;;;;;;1.30;1.20;;;13.60;99.90;;;;;;5008948;28;20223;-71
2021/08/17 02:29:07;;;;;;;2.50;2.40;;;13.60;99.90;;;;;;5012743;28;20176;-71
2021/08/17 02:31:33;;;;;;;0.90;0.87;;;13.60;99.90;;;;;;5023117;28;20192;-70
2021/08/17 02:33:58;;;;;;;2.13;1.93;;;13.60;99.90;;;;;;5015525;28;20196;-70
2021/08/17 02:36:24;;;;;;;2.17;1.20;;;13.60;99.90;;;;;;5013087;28;20200;-70
2021/08/17 02:38:49;;;;;;;7.17;2.57;;;13.70;99.90;;;;;;5011092;28;20179;-73
2021/08/17 02:41:15;;;;;;;2.50;2.30;;;13.60;99.90;;;;;;5019516;28;20558;-73
2021/08/17 02:43:40;;;;;;;5.63;5.17;;;13.60;99.90;;;;;;5012132;28;20177;-73
2021/08/17 02:46:06;;;;;;;2.80;2.70;;;13.60;99.90;;;;;;5027703;28;20787;-72
2021/08/17 02:48:31;;;;;;;0.80;0.80;;;13.60;99.90;;;;;;5012473;28;20255;-72
2021/08/17 02:50:57;;;;;;;4.40;1.73;;;13.60;99.90;;;;;;5003532;28;20168;-73
2021/08/17 02:53:22;;;;;;;2.13;2.03;;;13.60;99.90;;;;;;5012749;28;20211;-72
2021/08/17 02:55:48;;;;;;;1.67;1.57;;;13.60;99.90;;;;;;5002764;28;20274;-72
2021/08/17 02:58:13;;;;;;;5.17;1.50;;;13.60;99.90;;;;;;5019599;28;20180;-73
2021/08/17 03:00:40;;;;;;;1.30;1.20;;;13.60;99.90;;;;;;5012197;28;20179;-73
2021/08/17 03:03:06;;;;;;;1.17;1.10;;;13.70;99.90;;;;;;5012675;28;20176;-73
2021/08/17 03:05:32;;;;;;;1.43;1.33;;;13.70;99.90;;;;;;5014425;28;20849;-72
2021/08/17 03:08:05;;;;;;;3.10;3.00;;;13.70;99.90;;;;;;5008077;28;20434;-73
2021/08/17 03:10:36;;;;;;;3.07;1.47;;;13.70;99.90;;;;;;5035244;28;20186;-72
2021/08/17 03:13:03;;;;;;;1.00;0.90;;;13.70;99.90;;;;;;5028477;28;20848;-73
2021/08/17 03:15:37;;;;;;;4.37;4.17;;;13.70;99.90;;;;;;5015447;28;20553;-72
2021/08/17 03:18:05;;;;;;;2.80;1.60;;;13.70;99.90;;;;;;5026728;28;20460;-72
2021/08/17 03:20:31;;;;;;;2.00;1.33;;;13.70;99.90;;;;;;5016972;28;20423;-72
2021/08/17 03:22:57;;;;;;;6.33;2.67;;;13.70;99.90;;;;;;5019793;28;20856;-73
2021/08/17 03:25:25;;;;;;;3.93;0.70;;;13.70;99.90;;;;;;5033560;28;20509;-72
2021/08/17 03:27:51;;;;;;;2.40;2.20;;;13.60;99.90;;;;;;5024812;28;20196;-72
2021/08/17 03:30:20;;;;;;;0.77;0.63;;;13.60;99.90;;;;;;5019358;28;20796;-73
2021/08/17 03:32:46;;;;;;;0.80;0.63;;;13.60;99.90;;;;;;5016785;28;20179;-73
2021/08/17 03:35:12;;;;;;;1.90;1.27;;;13.60;99.90;;;;;;5002882;28;20461;-73
2021/08/17 03:37:38;;;;;;;2.83;1.60;;;13.60;99.90;;;;;;5034381;28;20437;-73
2021/08/17 03:40:07;;;;;;;0.80;0.80;;;13.60;99.90;;;;;;5031472;28;20475;-73
2021/08/17 03:42:32;;;;;;;1.40;0.97;;;13.60;99.90;;;;;;5023843;28;20820;-73
2021/08/17 03:44:58;;;;;;;3.20;2.00;;;13.60;99.90;;;;;;5016857;28;20429;-73
2021/08/17 03:47:24;;;;;;;1.23;1.13;;;13.60;99.90;;;;;;5016308;28;20196;-73
2021/08/17 03:49:50;;;;;;;0.90;0.90;;;13.60;99.90;;;;;;5016331;28;20263;-72
2021/08/17 03:52:16;;;;;;;1.73;1.63;;;13.50;99.90;;;;;;5018925;28;20553;-72
2021/08/17 03:54:41;;;;;;;9.50;3.10;;;13.50;99.90;;;;;;5023667;28;20199;-72
2021/08/17 03:57:07;;;;;;;2.50;2.30;;;13.50;99.90;;;;;;5016793;28;20192;-73
2021/08/17 03:59:32;;;;;;;3.17;2.60;;;13.50;99.90;;;;;;5020116;28;20176;-72
2021/08/17 04:01:58;;;;;;;3.03;1.00;;;13.40;99.90;;;;;;5018110;28;20254;-71
2021/08/17 04:04:23;;;;;;;0.80;0.60;;;13.40;99.90;;;;;;5032387;28;20168;-73
2021/08/17 04:06:49;;;;;;;1.20;1.10;;;13.50;99.90;;;;;;5017658;28;20914;-73
2021/08/17 04:09:14;;;;;;;2.30;0.90;;;13.50;99.90;;;;;;5026777;28;20203;-72
2021/08/17 04:11:40;;;;;;;2.20;2.00;;;13.50;99.90;;;;;;5033201;28;20237;-72
2021/08/17 04:14:05;;;;;;;1.27;1.17;;;13.50;99.90;;;;;;5025102;28;20192;-73
2021/08/17 04:16:31;;;;;;;1.77;1.67;;;13.60;99.90;;;;;;5015745;28;20207;-73
2021/08/17 04:18:56;;;;;;;1.70;1.60;;;13.60;99.90;;;;;;5032609;28;20175;-72
2021/08/17 04:21:22;;;;;;;2.93;2.80;;;13.60;99.90;;;;;;5018397;28;20251;-73
2021/08/17 04:23:48;;;;;;;0.80;0.70;;;13.70;99.90;;;;;;5015588;28;20214;-73
2021/08/17 04:26:14;;;;;;;0.87;0.80;;;13.60;99.90;;;;;;5014245;28;20521;-72
2021/08/17 04:28:40;;;;;;;1.80;1.70;;;13.70;99.90;;;;;;5014625;28;20196;-73
2021/08/17 04:31:05;;;;;;;1.67;1.43;;;13.70;99.90;;;;;;5015488;28;20238;-72
2021/08/17 04:33:31;;;;;;;1.13;1.03;;;13.60;99.90;;;;;;5020033;28;20262;-72
2021/08/17 04:35:56;;;;;;;0.80;0.70;;;13.60;99.90;;;;;;5007663;28;20654;-72
2021/08/17 04:38:22;;;;;;;2.40;2.07;;;13.60;99.90;;;;;;5027223;28;20642;-72
2021/08/17 04:40:47;;;;;;;1.00;0.70;;;13.70;99.90;;;;;;5033607;28;20180;-73
2021/08/17 04:43:13;;;;;;;1.17;1.07;;;13.70;99.90;;;;;;5029849;28;20192;-72
2021/08/17 04:45:38;;;;;;;3.13;2.90;;;13.70;99.90;;;;;;5014849;28;20180;-71
2021/08/17 04:48:05;;;;;;;1.63;1.07;;;13.70;99.90;;;;;;5014138;28;20242;-73
2021/08/17 04:50:30;;;;;;;5.60;1.67;;;13.70;99.90;;;;;;5014203;28;20215;-72
2021/08/17 04:52:56;;;;;;;4.23;2.50;;;13.70;99.90;;;;;;5022568;28;20838;-73
2021/08/17 04:55:22;;;;;;;2.70;1.77;;;13.70;99.90;;;;;;5018623;28;20464;-73
2021/08/17 04:57:55;;;;;;;2.33;2.13;;;13.80;99.90;;;;;;5033182;28;20200;-72
2021/08/17 05:00:22;;;;;;;1.53;1.00;;;13.80;99.90;;;;;;5025260;28;20649;-73
2021/08/17 05:02:48;;;;;;;3.13;2.90;;;13.80;99.90;;;;;;5018806;28;20479;-72
2021/08/17 05:05:14;;;;;;;11.50;3.47;;;13.80;99.90;;;;;;5030446;28;20427;-72
2021/08/17 05:07:41;;;;;;;1.77;1.60;;;13.70;99.90;;;;;;5015073;28;20522;-73
2021/08/17 05:10:08;;;;;;;1.27;1.17;;;13.80;99.90;;;;;;5013927;28;20450;-73
2021/08/17 05:12:35;;;;;;;2.03;1.77;;;13.80;99.90;;;;;;5009688;28;20928;-72
2021/08/17 05:15:02;;;;;;;1.03;0.93;;;13.80;99.90;;;;;;5032565;28;20462;-73
2021/08/17 05:17:28;;;;;;;3.23;2.93;;;13.90;99.90;;;;;;5014279;28;20919;-72
2021/08/17 05:19:53;;;;;;;3.37;1.13;;;13.90;99.90;;;;;;5016400;28;20454;-71
2021/08/17 05:22:19;;;;;;;1.73;1.63;;;13.90;99.90;;;;;;5018437;28;20580;-72
2021/08/17 05:24:44;;;;;;;1.07;1.03;;;14.00;99.90;;;;;;5020368;28;20180;-73
2021/08/17 05:27:10;;;;;;;2.70;1.20;;;14.10;99.90;;;;;;5028867;28;20199;-72
2021/08/17 05:29:36;;;;;;;2.20;2.10;;;14.10;99.90;;;;;;5032212;28;20183;-72
2021/08/17 05:32:03;;;;;;;2.10;2.00;;;14.20;99.90;;;;;;5029440;28;20668;-73
2021/08/17 05:34:29;;;;;;;1.10;1.00;;;14.20;99.90;;;;;;5024975;28;20206;-73
2021/08/17 05:36:54;;;;;;;14.43;2.30;;;14.20;99.90;;;;;;5023343;28;20443;-72
2021/08/17 05:39:20;;;;;;;1.33;1.23;;;14.20;99.90;;;;;;5014561;28;20178;-71
2021/08/17 05:41:45;;;;;;;2.50;2.40;;;14.20;99.90;;;;;;5013206;28;20181;-72
2021/08/17 05:44:11;;;;;;;1.97;1.47;;;14.20;99.90;;;;;;5007472;28;20183;-73
2021/08/17 05:46:36;;;;;;;4.97;4.27;;;14.20;99.90;;;;;;5018459;28;20196;-72
2021/08/17 05:49:02;;;;;;;5.53;5.33;;;14.30;99.90;;;;;;5013152;28;20170;-73
2021/08/17 05:51:27;;;;;;;1.67;1.57;;;14.30;99.90;;;;;;5005946;28;20175;-73
2021/08/17 05:53:53;;;;;;;0.97;0.80;;;14.40;99.90;;;;;;5013775;28;20199;-72
2021/08/17 05:56:18;;;;;;;1.37;1.27;;;14.50;99.90;;;;;;5014664;28;20196;-72
2021/08/17 05:58:44;;;;;;;2.00;1.17;;;14.50;99.90;;;;;;5032447;28;20696;-73
2021/08/17 06:01:09;;;;;;;2.70;2.50;;;14.50;99.90;;;;;;5032643;28;20582;-72
2021/08/17 06:03:35;;;;;;;3.63;3.40;;;14.50;99.90;;;;;;5020475;28;20172;-72
2021/08/17 06:06:00;;;;;;;4.40;3.70;;;14.50;99.90;;;;;;5021629;28;20195;-71
2021/08/17 06:08:27;;;;;;;2.30;2.03;;;14.60;99.90;;;;;;5013040;28;20178;-73
2021/08/17 06:10:53;;;;;;;1.53;1.43;;;14.60;99.90;;;;;;5012709;28;20176;-72
2021/08/17 06:13:18;;;;;;;2.20;0.87;;;14.60;99.90;;;;;;5014027;28;20418;-73
2021/08/17 06:15:44;;;;;;;1.27;1.17;;;14.60;99.90;;;;;;5003285;28;20227;-73
2021/08/17 06:18:10;;;;;;;2.03;1.53;;;14.70;99.90;;;;;;5027959;28;20208;-73
2021/08/17 06:20:36;;;;;;;4.30;3.37;;;14.80;99.90;;;;;;5032030;28;20916;-73
2021/08/17 06:23:02;;;;;;;3.83;1.40;;;14.90;99.90;;;;;;5017165;28;20168;-72
2021/08/17 06:25:29;;;;;;;5.80;2.43;;;15.00;99.90;;;;;;5000149;28;20179;-73
2021/08/17 06:27:58;;;;;;;1.77;1.57;;;15.20;99.90;;;;;;5018576;28;20486;-73
2021/08/17 06:30:23;;;;;;;1.63;1.37;;;15.40;99.90;;;;;;5012290;28;20820;-72
2021/08/17 06:32:49;;;;;;;3.53;1.37;;;15.60;99.90;;;;;;5013565;28;20411;-73
2021/08/17 06:35:15;;;;;;;2.53;1.13;;;15.80;99.90;;;;;;5014893;28;20203;-73
2021/08/17 06:37:41;;;;;;;3.00;2.10;;;16.10;99.90;;;;;;5018120;28;20192;-73
2021/08/17 06:40:07;;;;;;;0.80;0.73;;;16.10;99.90;;;;;;5014364;28;20679;-73
2021/08/17 06:42:33;;;;;;;1.03;0.93;;;16.10;99.90;;;;;;5029528;28;20414;-73
2021/08/17 06:44:58;;;;;;;14.80;3.63;;;16.10;99.90;;;;;;5011597;28;20430;-73
2021/08/17 06:47:24;;;;;;;2.93;1.60;;;16.10;99.90;;;;;;4994838;28;20571;-73
2021/08/17 06:49:49;;;;;;;5.93;1.90;;;16.10;99.90;;;;;;5028749;28;20214;-74
2021/08/17 06:52:15;;;;;;;6.97;2.63;;;16.20;99.90;;;;;;5023289;28;20873;-73
2021/08/17 06:54:40;;;;;;;0.90;0.77;;;16.30;99.90;;;;;;5013096;28;20282;-73
2021/08/17 06:57:06;;;;;;;3.77;2.60;;;16.30;99.90;;;;;;5029222;28;20253;-73
2021/08/17 06:59:32;;;;;;;2.93;2.50;;;16.50;99.90;;;;;;5027990;28;20174;-74
2021/08/17 07:01:58;;;;;;;4.87;2.27;;;16.60;99.90;;;;;;5010889;28;20262;-74
2021/08/17 07:04:24;;;;;;;2.60;2.40;;;16.70;99.90;;;;;;4998653;28;20183;-73
2021/08/17 07:06:49;;;;;;;7.30;2.93;;;16.70;99.90;;;;;;5014268;28;20970;-73
2021/08/17 07:09:15;;;;;;;3.07;2.10;;;16.70;99.90;;;;;;5012144;28;20259;-73
2021/08/17 07:11:40;;;;;;;3.13;2.37;;;16.80;99.90;;;;;;5013231;28;20640;-73
2021/08/17 07:14:06;;;;;;;3.10;2.90;;;16.80;99.90;;;;;;5022988;28;20208;-74
2021/08/17 07:16:31;;;;;;;3.30;1.40;;;16.80;99.90;;;;;;5028122;28;20203;-73
2021/08/17 07:18:57;;;;;;;5.03;2.77;;;16.70;99.90;;;;;;5015046;28;20177;-73
2021/08/17 07:21:23;;;;;;;4.70;1.83;;;16.60;99.90;;;;;;5023262;28;20241;-72
2021/08/17 07:23:48;;;;;;;2.20;2.07;;;16.50;99.90;;;;;;5019307;28;20553;-74
2021/08/17 07:26:14;;;;;;;1.10;1.00;;;16.60;99.90;;;;;;5020780;28;20195;-74
2021/08/17 07:28:40;;;;;;;2.03;1.93;;;16.80;99.90;;;;;;5012370;28;20177;-73
2021/08/17 07:31:05;;;;;;;0.80;0.70;;;16.90;99.90;;;;;;5012770;28;20797;-73
2021/08/17 07:33:31;;;;;;;16.20;2.77;;;17.10;99.90;;;;;;5022738;28;20184;-73
2021/08/17 07:35:56;;;;;;;3.03;2.10;;;17.20;99.90;;;;;;5015666;28;20219;-74
2021/08/17 07:38:22;;;;;;;2.70;1.73;;;17.20;99.90;;;;;;5011884;28;20184;-73
2021/08/17 07:40:47;;;;;;;4.47;4.07;;;17.30;99.90;;;;;;5004184;28;20187;-74
2021/08/17 07:43:14;;;;;;;6.30;2.67;;;17.20;99.90;;;;;;5021042;28;20172;-72
2021/08/17 07:45:39;;;;;;;1.97;1.57;;;17.30;99.90;;;;;;5004220;28;20189;-73
2021/08/17 07:48:05;;;;;;;3.07;2.87;;;17.20;99.90;;;;;;5012425;28;20427;-74
2021/08/17 07:50:31;;;;;;;5.47;4.20;;;17.10;99.90;;;;;;5013559;28;20259;-73
2021/08/17 07:52:56;;;;;;;4.40;2.70;;;17.10;99.90;;;;;;5016248;28;20219;-74
2021/08/17 07:55:22;;;;;;;6.27;2.60;;;17.10;99.90;;;;;;5016363;28;20211;-73
2021/08/17 07:57:48;;;;;;;6.90;5.33;;;17.40;99.90;;;;;;5023953;28;20236;-72
2021/08/17 08:00:14;;;;;;;1.60;1.27;;;17.50;99.90;;;;;;5020086;28;20179;-74
2021/08/17 08:02:40;;;;;;;1.77;1.67;;;17.80;99.90;;;;;;5033465;28;20180;-73
2021/08/17 08:05:06;;;;;;;6.10;3.87;;;18.10;99.90;;;;;;5033272;28;20511;-75
2021/08/17 08:07:32;;;;;;;1.97;1.87;;;18.60;99.90;;;;;;5022498;28;20211;-73
2021/08/17 08:09:57;;;;;;;6.80;2.53;;;19.10;99.90;;;;;;5014720;28;20423;-74
2021/08/17 08:12:23;;;;;;;1.53;1.43;;;19.20;99.90;;;;;;5019675;28;20248;-75
2021/08/17 08:14:49;;;;;;;2.30;2.10;;;19.40;99.90;;;;;;5025040;28;20389;-73
2021/08/17 08:17:14;;;;;;;1.67;1.57;;;19.60;99.90;;;;;;5028886;28;20268;-74
2021/08/17 08:19:40;;;;;;;2.43;2.10;;;19.60;99.90;;;;;;5029948;28;20168;-73
2021/08/17 08:22:07;;;;;;;3.83;2.10;;;19.80;99.90;;;;;;5014625;28;20224;-74
2021/08/17 08:24:33;;;;;;;2.63;2.43;;;20.20;99.90;;;;;;5014464;28;20168;-73
2021/08/17 08:26:59;;;;;;;1.93;1.20;;;20.50;99.90;;;;;;5014311;28;20444;-74
2021/08/17 08:29:24;;;;;;;3.10;2.03;;;20.80;99.90;;;;;;5020715;28;20497;-73
2021/08/17 08:31:50;;;;;;;6.33;2.40;;;21.10;99.90;;;;;;5021754;28;20191;-75
2021/08/17 08:34:16;;;;;;;3.57;3.27;;;21.40;99.90;;;;;;5014233;28;20187;-74
2021/08/17 08:36:41;;;;;;;1.77;1.40;;;21.40;99.90;;;;;;5013941;28;20616;-74
2021/08/17 08:39:07;;;;;;;1.33;1.23;;;21.20;99.90;;;;;;5014382;28;20176;-73
2021/08/17 08:41:32;;;;;;;3.80;3.50;;;20.80;99.90;;;;;;5005398;28;20175;-75
2021/08/17 08:43:58;;;;;;;2.50;1.57;;;20.90;99.90;;;;;;5024040;28;20221;-73
2021/08/17 08:46:25;;;;;;;1.60;0.90;;;20.80;99.90;;;;;;5032062;28;20442;-72
2021/08/17 08:48:52;;;;;;;3.00;1.90;;;20.90;99.90;;;;;;5015911;28;20710;-75
2021/08/17 08:51:20;;;;;;;3.90;2.30;;;20.70;99.90;;;;;;5015363;28;20804;-75
2021/08/17 08:53:47;;;;;;;3.43;1.43;;;20.50;99.90;;;;;;5014043;28;20523;-73
2021/08/17 08:56:12;;;;;;;2.10;1.87;;;20.30;99.90;;;;;;5013746;28;20430;-73
2021/08/17 08:58:40;;;;;;;4.67;2.83;;;20.20;99.90;;;;;;5013765;28;20423;-71
2021/08/17 09:01:09;;;;;;;1.13;1.00;;;20.60;99.90;;;;;;5014561;28;20174;-71
2021/08/17 09:03:46;;;;;;;3.23;1.87;;;20.80;99.90;;;;;;5028098;28;20507;-72
2021/08/17 09:06:29;;;;;;;3.93;1.70;;;20.80;99.90;;;;;;5006093;28;20458;-73
2021/08/17 09:09:16;;;;;;;3.23;3.03;;;21.00;99.90;;;;;;5014017;28;20426;-74
2021/08/17 09:11:44;;;;;;;4.33;3.17;;;21.20;99.90;;;;;;5019837;28;20816;-76
2021/08/17 09:14:20;;;;;;;2.07;1.90;;;21.50;99.90;;;;;;4999635;28;21052;-77
2021/08/17 09:16:47;;;;;;;2.03;1.57;;;21.50;99.90;;;;;;5014317;28;20538;-76
2021/08/17 09:19:30;;;;;;;5.80;4.63;;;21.40;99.90;;;;;;5019652;28;20498;-76
2021/08/17 09:22:19;;;;;;;5.43;2.57;;;20.80;99.90;;;;;;5030364;28;20757;-73
2021/08/17 09:24:47;;;;;;;1.20;1.13;;;21.00;99.90;;;;;;5027528;28;20429;-74
2021/08/17 09:27:16;;;;;;;3.13;1.47;;;21.00;99.90;;;;;;5008521;28;20438;-73
2021/08/17 09:29:44;;;;;;;3.77;3.53;;;21.10;99.90;;;;;;5013417;28;20747;-76
2021/08/17 09:32:24;;;;;;;2.60;2.40;;;21.20;99.90;;;;;;5013896;28;20971;-77
2021/08/17 09:34:55;;;;;;;3.83;2.93;;;21.40;99.90;;;;;;4999360;28;20461;-75
2021/08/17 09:37:29;;;;;;;3.70;1.83;;;21.30;99.90;;;;;;5013982;28;20932;-76
2021/08/17 09:39:56;;;;;;;3.27;1.23;;;20.70;99.90;;;;;;5013679;28;20490;-73
2021/08/17 09:42:30;;;;;;;2.20;1.20;;;20.30;99.90;;;;;;5013250;28;20403;-72
2021/08/17 09:45:15;;;;;;;6.80;3.73;;;20.30;99.90;;;;;;5020495;28;20422;-76
2021/08/17 09:47:55;;;;;;;1.40;1.30;;;20.10;99.90;;;;;;5028700;28;20445;-76
2021/08/17 09:50:27;;;;;;;8.07;2.30;;;19.70;99.90;;;;;;4995546;28;20415;-74
2021/08/17 09:53:14;;;;;;;1.80;1.47;;;19.70;99.90;;;;;;4997011;28;20783;-74
2021/08/17 09:55:44;;;;;;;1.73;1.63;;;19.50;99.90;;;;;;5013650;28;20461;-73
2021/08/17 09:58:26;;;;;;;7.67;3.70;;;19.30;99.90;;;;;;5013505;28;20420;-73
2021/08/17 10:00:58;;;;;;;3.43;2.30;;;19.10;99.90;;;;;;5013472;28;20426;-76
2021/08/17 10:03:25;;;;;;;5.03;2.67;;;19.20;99.90;;;;;;5028220;28;20425;-77
2021/08/17 10:05:51;;;;;;;3.13;2.20;;;19.10;99.90;;;;;;5032246;28;20399;-73
2021/08/17 10:08:17;;;;;;;4.40;2.43;;;18.90;99.90;;;;;;5030308;28;20422;-74
2021/08/17 10:10:45;;;;;;;2.57;2.37;;;18.90;99.90;;;;;;5014233;28;20179;-75
2021/08/17 10:13:14;;;;;;;1.73;1.03;;;18.60;99.90;;;;;;5016483;28;20427;-74
2021/08/17 10:15:42;;;;;;;4.17;1.70;;;18.70;99.90;;;;;;5012304;28;20450;-74
2021/08/17 10:18:09;;;;;;;3.87;1.80;;;18.80;99.90;;;;;;5012997;28;20449;-74
2021/08/17 10:20:38;;;;;;;7.87;1.30;;;18.80;99.90;;;;;;5012632;28;20837;-76
2021/08/17 10:23:03;;;;;;;3.37;3.07;;;18.80;99.90;;;;;;5013521;28;20781;-75
2021/08/17 10:25:45;;;;;;;4.30;2.53;;;18.90;99.90;;;;;;5012167;28;20427;-76
2021/08/17 10:28:28;;;;;;;4.10;3.20;;;18.90;99.90;;;;;;5012630;28;20176;-75
2021/08/17 10:30:55;;;;;;;2.90;1.47;;;19.00;99.90;;;;;;5019690;28;20449;-73
2021/08/17 10:33:40;;;;;;;0.80;0.60;;;19.10;99.90;;;;;;5012513;28;20415;-76
2021/08/17 10:36:11;;;;;;;1.77;1.03;;;19.10;99.90;;;;;;5026031;28;20457;-75
2021/08/17 10:38:43;;;;;;;6.40;3.47;;;19.10;99.90;;;;;;5013783;28;20419;-74
2021/08/17 10:41:09;;;;;;;3.67;3.00;;;18.80;99.90;;;;;;5013026;28;20480;-73
2021/08/17 10:43:35;;;;;;;1.57;1.47;;;18.60;99.90;;;;;;5016117;28;20415;-73
2021/08/17 10:46:06;;;;;;;2.97;1.93;;;18.60;99.90;;;;;;5026908;28;20814;-73
2021/08/17 10:48:49;;;;;;;2.13;1.70;;;18.60;99.90;;;;;;5029373;28;20713;-74
2021/08/17 10:51:18;;;;;;;1.37;1.27;;;18.50;99.90;;;;;;5023226;28;20425;-76
2021/08/17 10:53:44;;;;;;;1.47;1.07;;;18.60;99.90;;;;;;5015847;28;20868;-76
2021/08/17 10:56:12;;;;;;;2.30;1.70;;;18.60;99.90;;;;;;5031656;28;20422;-76
2021/08/17 10:58:43;;;;;;;2.93;1.43;;;18.80;99.90;;;;;;5031941;28;20406;-73
2021/08/17 11:01:08;;;;;;;2.10;2.00;;;18.70;99.90;;;;;;5026801;28;20430;-74
2021/08/17 11:03:44;;;;;;;0.70;0.50;;;18.70;99.90;;;;;;5031396;28;20921;-76
2021/08/17 11:06:34;;;;;;;2.63;2.43;;;18.70;99.90;;;;;;5031765;28;20266;-76
2021/08/17 11:08:59;;;;;;;2.23;1.27;;;18.70;99.90;;;;;;5026925;28;20423;-75
2021/08/17 11:11:25;;;;;;;1.70;1.60;;;18.80;99.90;;;;;;5015396;28;20415;-73
2021/08/17 11:14:18;;;;;;;1.80;1.70;;;18.80;99.90;;;;;;5012576;28;20200;-73
2021/08/17 11:16:47;;;;;;;1.80;1.23;;;18.80;99.90;;;;;;5026212;28;20192;-72
2021/08/17 11:19:14;;;;;;;1.77;1.37;;;18.60;99.90;;;;;;5012060;28;20750;-76
2021/08/17 11:21:54;;;;;;;4.60;1.73;;;18.40;99.90;;;;;;5016246;28;20950;-75
2021/08/17 11:24:32;;;;;;;2.10;2.00;;;18.40;99.90;;;;;;5015546;28;20418;-75
2021/08/17 11:26:59;;;;;;;1.77;1.67;;;18.40;99.90;;;;;;5014778;28;20789;-73
2021/08/17 11:29:51;;;;;;;3.30;2.80;;;18.30;99.90;;;;;;5029085;28;20429;-74
2021/08/17 11:32:43;;;;;;;1.80;0.83;;;18.20;99.90;;;;;;5035609;28;20452;-73
2021/08/17 11:35:10;;;;;;;3.90;3.60;;;18.20;99.90;;;;;;5035173;28;20827;-75
2021/08/17 11:37:41;;;;;;;2.50;1.87;;;18.10;99.90;;;;;;5035412;28;20426;-76
2021/08/17 11:40:08;;;;;;;10.03;2.20;;;18.20;99.90;;;;;;5026971;28;20841;-76
2021/08/17 11:42:36;;;;;;;1.47;1.20;;;18.20;99.90;;;;;;5033785;28;20421;-73
2021/08/17 11:45:08;;;;;;;1.10;0.77;;;18.10;99.90;;;;;;5034848;28;20398;-73
2021/08/17 11:47:36;;;;;;;5.63;1.70;;;18.00;99.90;;;;;;5035018;28;20421;-76
2021/08/17 11:50:04;;;;;;;6.60;1.33;;;17.90;99.90;;;;;;5029416;28;20502;-74
2021/08/17 11:52:43;;;;;;;1.27;1.17;;;17.80;99.90;;;;;;5032858;28;20783;-75
2021/08/17 11:55:14;;;;;;;3.83;1.70;;;17.70;99.90;;;;;;5019606;28;20458;-75
2021/08/17 11:57:42;;;;;;;1.13;1.03;;;17.60;99.90;;;;;;5016293;28;20622;-75
2021/08/17 12:00:14;;;;;;;2.50;1.63;;;17.60;99.90;;;;;;5020860;28;20425;-75
2021/08/17 12:03:05;;;;;;;3.00;1.67;;;17.60;99.90;;;;;;5028485;28;20412;-72
2021/08/17 12:05:32;;;;;;;1.20;1.10;;;17.60;99.90;;;;;;5011699;28;20430;-72
2021/08/17 12:07:59;;;;;;;1.93;1.13;;;17.70;99.90;;;;;;5014859;28;20449;-72
2021/08/17 12:10:27;;;;;;;2.03;1.77;;;17.80;99.90;;;;;;5016067;28;20466;-75
2021/08/17 12:13:02;;;;;;;2.10;1.63;;;17.80;99.90;;;;;;5027995;28;20423;-75
2021/08/17 12:15:33;;;;;;;1.00;0.90;;;17.90;99.90;;;;;;5015843;28;20442;-72
2021/08/17 12:18:08;;;;;;;1.10;0.60;;;18.00;99.90;;;;;;5014912;28;20489;-75
2021/08/17 12:20:37;;;;;;;1.00;0.70;;;18.00;99.90;;;;;;5014922;28;20478;-75
2021/08/17 12:23:20;;;;;;;1.90;0.77;;;18.10;99.90;;;;;;5013671;28;20565;-72
2021/08/17 12:25:48;;;;;;;1.60;1.50;;;18.10;99.90;;;;;;5014912;28;20422;-75
2021/08/17 12:28:33;;;;;;;1.30;1.20;;;18.20;99.90;;;;;;5021015;28;20493;-75
2021/08/17 12:31:26;;;;;;;1.70;1.60;;;18.20;99.90;;;;;;5033664;28;20433;-75
2021/08/17 12:33:58;;;;;;;2.30;2.10;;;18.10;99.90;;;;;;5013962;28;20493;-75
2021/08/17 12:36:41;;;;;;;1.87;1.77;;;18.20;99.90;;;;;;5027204;28;20529;-75
2021/08/17 12:39:11;;;;;;;0.90;0.80;;;18.20;99.90;;;;;;5016056;28;20553;-74
2021/08/17 12:41:48;;;;;;;1.40;1.27;;;18.30;99.90;;;;;;4998030;28;20423;-77
2021/08/17 12:44:22;;;;;;;1.40;1.30;;;18.40;99.90;;;;;;4996746;28;20442;-74
2021/08/17 12:47:03;;;;;;;1.43;0.70;;;18.40;99.90;;;;;;5015018;28;20434;-72
2021/08/17 12:49:49;;;;;;;1.73;1.63;;;18.40;99.90;;;;;;5030182;28;20820;-72